Terminal Aerodrome Forecast
Issued by NWS Melbourne, FL

Home | Current Version | Previous Version | Text Only | Print | Product List | Glossary On
Versions: 1 2 3 4 5 6 7 8 9 10 11 12 13 14 15 16 17 18 19
020
FTUS42 KMLB 261131
TAFDAB
TAF
KDAB 261131Z 2612/2712 30003KT P6SM FEW025
     FM261400 31005KT P6SM SCT030
     FM261900 04009KT P6SM FEW035
     FM262300 07005KT P6SM FEW040 SCT250=

USA.gov is the U.S. government's official web portal to all federal, state and local government web resources and services.